createdAt,value
2018-07-19T00:00:50.331Z,16.97
2018-07-19T00:03:21.676Z,16.60
2018-07-19T00:05:53.341Z,15.35
2018-07-19T00:08:24.063Z,17.15
2018-07-19T00:10:54.314Z,21.90
2018-07-19T00:13:24.860Z,17.07
2018-07-19T00:15:55.901Z,19.95
2018-07-19T00:18:33.344Z,16.37
2018-07-19T00:21:03.940Z,16.10
2018-07-19T00:23:34.145Z,16.57
2018-07-19T00:26:06.438Z,16.35
2018-07-19T00:28:36.529Z,17.95
2018-07-19T00:31:08.514Z,19.52
2018-07-19T00:33:38.514Z,21.17
2018-07-19T00:36:08.313Z,19.65
2018-07-19T00:38:38.435Z,17.60
2018-07-19T00:41:09.826Z,18.40
2018-07-19T00:43:40.197Z,19.42
2018-07-19T00:46:10.307Z,17.70
2018-07-19T00:48:41.348Z,16.97
2018-07-19T00:51:11.748Z,18.87
2018-07-19T00:53:43.074Z,21.05
2018-07-19T00:56:14.119Z,19.30
2018-07-19T00:58:44.494Z,18.70
2018-07-19T01:01:16.223Z,21.57
2018-07-19T01:03:46.947Z,19.90
2018-07-19T01:06:17.718Z,19.82
2018-07-19T01:08:48.041Z,18.15
2018-07-19T01:11:19.393Z,19.45
2018-07-19T01:13:50.664Z,20.05
2018-07-19T01:16:21.187Z,19.85
2018-07-19T01:18:51.468Z,22.52
2018-07-19T01:21:22.831Z,18.42
2018-07-19T01:23:53.543Z,21.37
2018-07-19T01:26:24.705Z,18.90
2018-07-19T01:28:55.397Z,19.37
2018-07-19T01:31:26.424Z,18.90
2018-07-19T01:34:00.385Z,18.95
2018-07-19T01:36:30.350Z,21.75
2018-07-19T01:39:02.750Z,19.42
2018-07-19T01:41:38.946Z,20.55
2018-07-19T01:44:10.308Z,24.20
2018-07-19T01:46:40.903Z,20.45
2018-07-19T01:49:10.983Z,19.87
2018-07-19T01:51:42.909Z,19.50
2018-07-19T01:54:13.800Z,20.48
2018-07-19T01:56:46.762Z,23.83
2018-07-19T01:59:17.187Z,19.87
2018-07-19T02:01:48.194Z,21.02
2018-07-19T02:04:19.650Z,19.12
2018-07-19T02:06:50.913Z,19.55
2018-07-19T02:09:22.275Z,23.20
2018-07-19T02:11:52.993Z,18.75
2018-07-19T02:14:23.978Z,18.25
2018-07-19T02:16:56.073Z,18.85
2018-07-19T02:19:29.666Z,22.52
2018-07-19T02:22:02.637Z,20.77
2018-07-19T02:24:33.315Z,19.73
2018-07-19T02:27:05.033Z,20.80
2018-07-19T02:29:36.914Z,17.87
2018-07-19T02:32:09.319Z,20.50
2018-07-19T02:34:40.819Z,19.50
2018-07-19T02:37:13.004Z,22.45
2018-07-19T02:39:44.034Z,18.10
2018-07-19T02:42:14.442Z,17.80
2018-07-19T02:44:46.763Z,18.48
2018-07-19T02:47:18.178Z,20.50
2018-07-19T02:49:49.479Z,20.75
2018-07-19T02:52:20.193Z,17.17
2018-07-19T02:54:50.604Z,17.95
2018-07-19T02:57:21.631Z,18.82
2018-07-19T02:59:52.071Z,18.32
2018-07-19T03:02:22.785Z,19.57
2018-07-19T03:04:53.484Z,18.50
2018-07-19T03:07:25.185Z,18.32
2018-07-19T03:09:55.883Z,18.23
2018-07-19T03:12:25.986Z,19.02
2018-07-19T03:14:56.367Z,20.45
2018-07-19T03:17:27.953Z,19.82
2018-07-19T03:19:58.472Z,22.42
2018-07-19T03:22:29.833Z,16.55
2018-07-19T03:25:00.744Z,17.60
2018-07-19T03:27:33.159Z,22.50
2018-07-19T03:30:05.878Z,17.82
2018-07-19T03:32:37.482Z,21.12
2018-07-19T03:35:08.838Z,17.02
2018-07-19T03:37:39.234Z,19.87
2018-07-19T03:40:09.974Z,18.12
2018-07-19T03:42:41.582Z,17.35
2018-07-19T03:45:13.035Z,19.70
2018-07-19T03:47:45.029Z,19.90
2018-07-19T03:50:17.013Z,16.97
2018-07-19T03:52:47.719Z,19.87
2018-07-19T03:55:19.747Z,19.95
2018-07-19T03:57:49.705Z,27.93
2018-07-19T04:00:20.200Z,18.77
2018-07-19T04:02:51.883Z,18.62
2018-07-19T04:05:22.550Z,16.50
2018-07-19T04:07:54.625Z,17.05
2018-07-19T04:10:28.869Z,17.48
2018-07-19T04:12:59.587Z,20.05
2018-07-19T04:15:31.206Z,20.70
2018-07-19T04:18:01.668Z,19.42
2018-07-19T04:20:32.598Z,16.40
2018-07-19T04:23:03.075Z,19.62
2018-07-19T04:25:34.787Z,20.60
2018-07-19T04:28:04.929Z,23.38
2018-07-19T04:30:35.909Z,15.75
2018-07-19T04:33:06.535Z,16.85
2018-07-19T04:35:37.313Z,15.68
2018-07-19T04:38:08.533Z,18.30
2018-07-19T04:40:39.409Z,18.25
2018-07-19T04:43:10.435Z,16.27
2018-07-19T04:45:41.797Z,19.52
2018-07-19T04:48:12.576Z,17.75
2018-07-19T04:50:43.874Z,17.75
2018-07-19T04:53:14.285Z,16.93
2018-07-19T04:55:45.983Z,19.20
2018-07-19T04:58:16.992Z,14.55
2018-07-19T05:00:48.087Z,19.32
2018-07-19T05:03:18.439Z,15.60
2018-07-19T05:05:48.874Z,17.02
2018-07-19T05:08:18.591Z,17.50
2018-07-19T05:10:49.812Z,30.12
2018-07-19T05:13:21.402Z,15.23
2018-07-19T05:15:51.967Z,15.38
2018-07-19T05:18:22.149Z,17.70
2018-07-19T05:20:52.843Z,18.02
2018-07-19T05:23:24.197Z,12.10
2018-07-19T05:25:55.244Z,16.00
2018-07-19T05:28:26.306Z,14.40
2018-07-19T05:30:56.995Z,15.75
2018-07-19T05:33:27.754Z,11.75
2018-07-19T05:35:58.470Z,14.63
2018-07-19T05:38:28.876Z,14.10
2018-07-19T05:40:59.589Z,12.18
2018-07-19T05:43:30.684Z,14.50
2018-07-19T05:46:04.438Z,16.73
2018-07-19T05:48:35.241Z,12.13
2018-07-19T05:51:06.289Z,13.45
2018-07-19T05:53:37.001Z,11.05
2018-07-19T05:56:08.711Z,12.43
2018-07-19T05:58:39.426Z,15.90
2018-07-19T06:01:12.061Z,11.93
2018-07-19T06:03:43.757Z,13.53
2018-07-19T06:06:15.106Z,12.35
2018-07-19T06:08:46.786Z,11.95
2018-07-19T06:11:18.119Z,12.68
2018-07-19T06:13:49.504Z,15.68
2018-07-19T06:16:20.220Z,14.93
2018-07-19T06:18:51.266Z,12.20
2018-07-19T06:21:22.312Z,18.35
2018-07-19T06:23:52.393Z,16.75
2018-07-19T06:26:24.044Z,17.57
2018-07-19T06:28:55.425Z,17.35
2018-07-19T06:31:26.821Z,11.68
2018-07-19T06:33:59.423Z,10.95
2018-07-19T06:36:30.133Z,19.92
2018-07-19T06:39:01.827Z,15.72
2018-07-19T06:41:32.919Z,13.03
2018-07-19T06:44:04.874Z,14.47
2018-07-19T06:46:35.239Z,10.88
2018-07-19T06:49:06.930Z,11.93
2018-07-19T06:51:38.280Z,15.85
2018-07-19T06:54:08.066Z,13.58
2018-07-19T06:56:38.852Z,18.00
2018-07-19T06:59:10.478Z,11.65
2018-07-19T07:01:42.150Z,11.08
2018-07-19T07:04:13.509Z,13.22
2018-07-19T07:06:44.162Z,14.28
2018-07-19T07:09:15.589Z,14.10
2018-07-19T07:11:47.590Z,15.53
2018-07-19T07:14:19.592Z,15.70
2018-07-19T07:16:50.290Z,11.25
2018-07-19T07:19:21.027Z,13.28
2018-07-19T07:21:53.028Z,19.85
2018-07-19T07:24:24.365Z,10.90
2018-07-19T07:26:55.231Z,12.70
2018-07-19T07:29:26.442Z,14.35
2018-07-19T07:31:57.509Z,14.07
2018-07-19T07:34:29.479Z,18.87
2018-07-19T07:37:00.869Z,14.87
2018-07-19T07:39:32.548Z,13.45
2018-07-19T07:42:03.906Z,14.03
2018-07-19T07:44:36.546Z,18.32
2018-07-19T07:47:10.441Z,20.27
2018-07-19T07:49:40.876Z,15.20
2018-07-19T07:52:11.890Z,15.32
2018-07-19T07:54:42.918Z,14.73
2018-07-19T07:57:13.029Z,13.35
2018-07-19T07:59:43.745Z,16.10
2018-07-19T08:02:18.399Z,14.65
2018-07-19T08:04:49.084Z,17.85
2018-07-19T08:07:20.132Z,14.38
2018-07-19T08:09:50.558Z,14.07
2018-07-19T08:12:21.279Z,19.37
2018-07-19T08:14:52.612Z,17.40
2018-07-19T08:17:24.002Z,16.97
2018-07-19T08:19:55.324Z,22.22
2018-07-19T08:22:27.333Z,15.13
2018-07-19T08:24:57.316Z,13.90
2018-07-19T08:27:28.461Z,16.40
2018-07-19T08:29:59.840Z,19.70
2018-07-19T08:32:31.206Z,15.50
2018-07-19T08:35:02.735Z,16.97
2018-07-19T08:37:33.577Z,13.80
2018-07-19T08:40:04.635Z,17.67
2018-07-19T08:42:35.342Z,16.77
2018-07-19T08:45:07.669Z,12.23
2018-07-19T08:47:38.398Z,12.65
2018-07-19T08:50:09.120Z,12.35
2018-07-19T08:52:39.499Z,15.08
2018-07-19T08:55:10.241Z,14.75
2018-07-19T08:57:40.615Z,22.75
2018-07-19T09:00:11.622Z,14.45
2018-07-19T09:02:44.062Z,15.60
2018-07-19T09:05:15.358Z,15.98
2018-07-19T09:07:47.356Z,13.58
2018-07-19T09:10:20.320Z,11.65
2018-07-19T09:12:51.818Z,12.13
2018-07-19T09:15:23.361Z,11.78
2018-07-19T09:17:54.049Z,11.95
2018-07-19T09:20:25.762Z,10.78
2018-07-19T09:22:57.119Z,11.80
2018-07-19T09:25:28.129Z,15.15
2018-07-19T09:27:59.200Z,13.22
2018-07-19T09:30:29.887Z,13.83
2018-07-19T09:33:01.277Z,13.90
2018-07-19T09:35:32.650Z,11.63
2018-07-19T09:38:05.900Z,13.65
2018-07-19T09:40:37.641Z,16.90
2018-07-19T09:43:08.620Z,13.83
2018-07-19T09:45:39.014Z,17.27
2018-07-19T09:48:09.763Z,15.35
2018-07-19T09:50:40.457Z,16.95
2018-07-19T09:53:13.187Z,11.30
2018-07-19T09:55:44.464Z,9.95
2018-07-19T09:58:16.166Z,11.30
2018-07-19T10:00:56.766Z,20.15
2018-07-19T10:03:28.448Z,8.68
2018-07-19T10:05:59.521Z,9.53
2018-07-19T10:08:30.217Z,9.80
2018-07-19T10:11:00.945Z,8.13
2018-07-19T10:13:31.404Z,7.25
2018-07-19T10:16:02.063Z,9.93
2018-07-19T10:18:32.761Z,9.55
2018-07-19T10:21:03.494Z,6.72
2018-07-19T10:23:34.885Z,6.65
2018-07-19T10:26:06.240Z,7.95
2018-07-19T10:28:36.931Z,9.45
2018-07-19T10:31:08.608Z,8.95
2018-07-19T10:33:39.360Z,7.05
2018-07-19T10:36:09.968Z,6.50
2018-07-19T10:38:40.448Z,7.53
2018-07-19T10:41:13.417Z,7.22
2018-07-19T10:43:44.142Z,6.83
2018-07-19T10:46:15.487Z,5.58
2018-07-19T10:48:47.175Z,7.60
2018-07-19T10:51:19.201Z,7.37
2018-07-19T10:53:50.212Z,6.08
2018-07-19T10:56:20.957Z,8.63
2018-07-19T10:58:52.005Z,5.65
2018-07-19T11:01:22.404Z,20.57
2018-07-19T11:03:52.800Z,8.78
2018-07-19T11:06:24.481Z,6.12
2018-07-19T11:08:55.810Z,4.72
2018-07-19T11:11:27.203Z,6.67
2018-07-19T11:13:57.922Z,5.08
2018-07-19T11:16:28.615Z,5.45
2018-07-19T11:19:02.252Z,6.83
2018-07-19T11:21:36.161Z,5.67
2018-07-19T11:24:07.838Z,6.78
2018-07-19T11:26:39.521Z,6.03
2018-07-19T11:29:10.557Z,4.72
2018-07-19T11:31:40.927Z,4.70
2018-07-19T11:34:11.658Z,6.72
2018-07-19T11:36:42.693Z,5.20
2018-07-19T11:39:14.496Z,5.62
2018-07-19T11:41:48.638Z,7.45
2018-07-19T11:44:19.007Z,6.78
2018-07-19T11:46:51.014Z,6.78
2018-07-19T11:49:22.397Z,6.72
2018-07-19T11:51:54.128Z,6.53
2018-07-19T11:54:25.084Z,5.30
2018-07-19T11:56:55.483Z,5.50
2018-07-19T11:59:26.214Z,4.95
2018-07-19T12:01:57.564Z,7.70
2018-07-19T12:04:28.193Z,4.42
2018-07-19T12:06:59.688Z,6.70
2018-07-19T12:09:32.294Z,5.28
2018-07-19T12:12:03.249Z,5.65
2018-07-19T12:14:34.369Z,3.55
2018-07-19T12:17:04.424Z,4.62
2018-07-19T12:19:34.108Z,4.85
2018-07-19T12:22:03.901Z,4.50
2018-07-19T12:24:34.592Z,4.10
2018-07-19T12:27:05.443Z,4.85
2018-07-19T12:29:36.086Z,3.40
2018-07-19T12:32:06.880Z,2.87
2018-07-19T12:34:37.175Z,3.15
2018-07-19T12:37:07.998Z,7.45
2018-07-19T12:39:38.719Z,3.85
2018-07-19T12:42:09.318Z,5.15
2018-07-19T12:44:40.771Z,3.05
2018-07-19T12:47:11.200Z,3.45
2018-07-19T12:49:41.590Z,2.12
2018-07-19T12:52:14.208Z,4.80
2018-07-19T12:54:45.261Z,3.08
2018-07-19T12:57:16.960Z,1.80
2018-07-19T12:59:48.603Z,3.00
2018-07-19T13:02:20.321Z,3.35
2018-07-19T13:04:51.343Z,3.08
2018-07-19T13:07:22.401Z,3.33
2018-07-19T13:09:52.785Z,4.10
2018-07-19T13:12:23.291Z,2.80
2018-07-19T13:14:54.494Z,4.70
2018-07-19T13:17:27.505Z,4.12
2018-07-19T13:19:57.598Z,2.22
2018-07-19T13:22:28.970Z,4.28
2018-07-19T13:25:01.244Z,4.10
2018-07-19T13:27:32.302Z,1.72
2018-07-19T13:30:03.327Z,3.15
2018-07-19T13:32:34.481Z,2.30
2018-07-19T13:35:06.086Z,3.45
2018-07-19T13:37:37.095Z,2.67
2018-07-19T13:40:08.132Z,2.40
2018-07-19T13:42:38.916Z,2.60
2018-07-19T13:45:09.601Z,3.08
2018-07-19T13:47:39.361Z,2.35
2018-07-19T13:50:10.726Z,2.92
2018-07-19T13:52:51.976Z,3.55
2018-07-19T13:55:23.972Z,1.90
2018-07-19T13:57:55.373Z,2.62
2018-07-19T14:00:26.365Z,4.03
2018-07-19T14:02:57.117Z,2.65
2018-07-19T14:05:28.776Z,1.90
2018-07-19T14:08:00.127Z,2.37
2018-07-19T14:10:30.120Z,1.82
2018-07-19T14:13:00.961Z,2.67
2018-07-19T14:15:32.109Z,3.12
2018-07-19T14:18:02.683Z,3.55
2018-07-19T14:20:33.741Z,3.10
2018-07-19T14:23:04.758Z,2.22
2018-07-19T14:25:35.185Z,4.62
2018-07-19T14:28:06.230Z,2.90
2018-07-19T14:30:36.957Z,5.15
2018-07-19T14:33:07.979Z,1.87
2018-07-19T14:35:41.922Z,2.17
2018-07-19T14:38:11.999Z,4.20
2018-07-19T14:40:42.282Z,2.00
2018-07-19T14:43:14.120Z,1.65
2018-07-19T14:45:44.480Z,1.80
2018-07-19T14:48:15.170Z,2.08
2018-07-19T14:50:47.177Z,3.62
2018-07-19T14:53:17.217Z,2.85
2018-07-19T14:55:47.310Z,2.65
2018-07-19T14:58:17.015Z,3.00
2018-07-19T15:00:46.550Z,3.35
2018-07-19T15:03:16.256Z,3.70
2018-07-19T15:05:45.996Z,3.98
2018-07-19T15:08:15.023Z,5.05
2018-07-19T15:10:44.558Z,4.92
2018-07-19T15:13:14.173Z,5.10
2018-07-19T15:15:42.922Z,5.95
2018-07-19T15:18:12.613Z,6.67
2018-07-19T15:20:42.028Z,6.28
2018-07-19T15:23:10.988Z,6.50
2018-07-19T15:25:40.915Z,6.75
2018-07-19T15:28:10.324Z,6.53
2018-07-19T15:30:40.098Z,7.60
2018-07-19T15:33:08.959Z,6.95
2018-07-19T15:35:38.687Z,6.33
2018-07-19T15:38:09.399Z,6.42
2018-07-19T15:40:39.274Z,6.72
2018-07-19T15:43:08.970Z,6.78
2018-07-19T15:45:38.748Z,6.37
2018-07-19T15:48:10.071Z,6.42
2018-07-19T15:50:39.512Z,6.15
2018-07-19T15:53:08.277Z,6.35
2018-07-19T15:55:37.925Z,6.25
2018-07-19T15:58:07.103Z,6.75
2018-07-19T16:00:36.564Z,8.65
2018-07-19T16:03:06.290Z,7.05
2018-07-19T16:05:36.809Z,8.58
2018-07-19T16:08:06.333Z,8.18
2018-07-19T16:10:35.193Z,9.43
2018-07-19T16:13:05.816Z,13.83
2018-07-19T16:15:34.574Z,9.20
2018-07-19T16:18:04.743Z,9.90
2018-07-19T16:20:34.376Z,10.25
2018-07-19T16:23:04.227Z,10.18
2018-07-19T16:25:33.719Z,12.40
2018-07-19T16:28:02.583Z,12.55
2018-07-19T16:30:32.445Z,12.00
2018-07-19T16:33:02.143Z,12.33
2018-07-19T16:35:31.697Z,13.30
2018-07-19T16:38:01.618Z,13.20
2018-07-19T16:40:30.666Z,14.55
2018-07-19T16:43:00.627Z,15.45
2018-07-19T16:45:30.228Z,15.60
2018-07-19T16:47:59.620Z,17.07
2018-07-19T16:50:28.596Z,16.93
2018-07-19T16:52:58.629Z,17.05
2018-07-19T16:55:28.224Z,19.32
2018-07-19T16:57:57.556Z,20.32
2018-07-19T17:00:27.918Z,18.27
2018-07-19T17:02:56.996Z,22.05
2018-07-19T17:05:27.098Z,17.20
2018-07-19T17:07:56.811Z,18.40
2018-07-19T17:10:26.791Z,21.62
2018-07-19T17:12:56.390Z,18.30
2018-07-19T17:15:26.139Z,16.23
2018-07-19T17:17:55.201Z,21.12
2018-07-19T17:20:24.855Z,17.80
2018-07-19T17:22:54.508Z,17.80
2018-07-19T17:25:24.337Z,16.80
2018-07-19T17:27:53.821Z,18.73
2018-07-19T17:30:22.715Z,17.27
2018-07-19T17:32:52.641Z,18.50
2018-07-19T17:35:22.180Z,17.07
2018-07-19T17:37:51.252Z,18.17
2018-07-19T17:40:20.145Z,17.95
2018-07-19T17:42:48.788Z,17.67
2018-07-19T17:45:18.329Z,19.57
2018-07-19T17:47:48.379Z,16.60
2018-07-19T17:50:18.116Z,17.02
2018-07-19T17:52:46.924Z,15.75
2018-07-19T17:55:16.266Z,16.35
2018-07-19T17:57:45.718Z,15.85
2018-07-19T18:00:14.597Z,14.78
2018-07-19T18:02:44.774Z,16.23
2018-07-19T18:05:15.440Z,15.48
2018-07-19T18:07:44.867Z,14.33
2018-07-19T18:10:14.892Z,14.55
2018-07-19T18:12:44.383Z,16.60
2018-07-19T18:15:14.090Z,13.90
2018-07-19T18:17:43.395Z,15.10
2018-07-19T18:20:12.762Z,14.55
2018-07-19T18:22:42.213Z,14.40
2018-07-19T18:25:10.871Z,15.80
2018-07-19T18:27:40.018Z,16.27
2018-07-19T18:30:09.729Z,15.40
2018-07-19T18:32:39.016Z,15.50
2018-07-19T18:35:08.734Z,15.35
2018-07-19T18:37:38.306Z,16.15
2018-07-19T18:40:08.502Z,15.28
2018-07-19T18:42:37.865Z,18.87
2018-07-19T18:45:07.727Z,15.45
2018-07-19T18:47:36.574Z,16.32
2018-07-19T18:50:06.302Z,15.08
2018-07-19T18:52:36.243Z,16.05
2018-07-19T18:55:05.751Z,16.67
2018-07-19T18:57:34.632Z,16.45
2018-07-19T19:00:05.018Z,15.80
2018-07-19T19:02:34.595Z,19.65
2018-07-19T19:05:03.457Z,16.27
2018-07-19T19:07:33.090Z,17.25
2018-07-19T19:10:03.041Z,16.57
2018-07-19T19:12:32.461Z,16.42
2018-07-19T19:15:02.593Z,18.07
2018-07-19T19:17:32.267Z,18.77
2018-07-19T19:20:01.147Z,17.52
2018-07-19T19:22:30.959Z,17.42
2018-07-19T19:25:00.549Z,17.45
2018-07-19T19:27:29.657Z,19.23
2018-07-19T19:29:59.213Z,17.82
2018-07-19T19:32:28.162Z,22.95
2018-07-19T19:34:56.797Z,17.27
2018-07-19T19:37:26.180Z,20.50
2018-07-19T19:39:55.677Z,20.82
2018-07-19T19:42:24.552Z,20.08
2018-07-19T19:44:54.511Z,18.30
2018-07-19T19:47:23.800Z,20.30
2018-07-19T19:49:52.902Z,17.32
2018-07-19T19:52:22.904Z,16.15
2018-07-19T19:54:52.721Z,23.10
2018-07-19T19:57:22.384Z,20.50
2018-07-19T19:59:52.051Z,17.75
2018-07-19T20:02:21.183Z,15.53
2018-07-19T20:04:50.984Z,17.95
2018-07-19T20:07:20.451Z,17.92
2018-07-19T20:09:49.891Z,18.57
2018-07-19T20:12:21.105Z,15.72
2018-07-19T20:14:50.890Z,17.80
2018-07-19T20:17:20.430Z,14.35
2018-07-19T20:19:51.139Z,15.68
2018-07-19T20:22:20.528Z,15.85
2018-07-19T20:24:50.310Z,17.23
2018-07-19T20:27:21.120Z,14.53
2018-07-19T20:29:50.573Z,19.02
2018-07-19T20:32:20.925Z,14.07
2018-07-19T20:34:50.629Z,18.12
2018-07-19T20:37:19.922Z,16.42
2018-07-19T20:39:49.683Z,14.30
2018-07-19T20:42:19.070Z,13.88
2018-07-19T20:44:47.708Z,14.58
2018-07-19T20:47:17.676Z,16.90
2018-07-19T20:49:47.339Z,16.73
2018-07-19T20:52:17.100Z,15.05
2018-07-19T20:54:46.701Z,15.38
2018-07-19T20:57:16.261Z,15.65
2018-07-19T20:59:45.720Z,19.27
2018-07-19T21:02:14.448Z,11.93
2018-07-19T21:04:45.528Z,14.95
2018-07-19T21:07:14.176Z,14.43
2018-07-19T21:09:43.192Z,18.23
2018-07-19T21:12:12.506Z,13.70
2018-07-19T21:14:42.406Z,13.03
2018-07-19T21:17:12.764Z,15.30
2018-07-19T21:19:42.219Z,14.38
2018-07-19T21:22:11.012Z,16.77
2018-07-19T21:24:40.250Z,16.97
2018-07-19T21:27:09.089Z,17.05
2018-07-19T21:29:38.689Z,15.50
2018-07-19T21:32:08.250Z,15.08
2018-07-19T21:34:36.879Z,19.65
2018-07-19T21:37:07.010Z,14.90
2018-07-19T21:39:36.407Z,15.18
2018-07-19T21:42:06.462Z,18.02
2018-07-19T21:44:35.208Z,19.12
2018-07-19T21:47:04.714Z,15.68
2018-07-19T21:49:34.155Z,20.10
2018-07-19T21:52:03.049Z,21.57
2018-07-19T21:54:32.381Z,17.45
2018-07-19T21:57:02.550Z,19.25
2018-07-19T21:59:32.269Z,19.37
2018-07-19T22:02:01.010Z,17.20
2018-07-19T22:04:30.640Z,19.52
2018-07-19T22:07:00.057Z,21.48
2018-07-19T22:09:29.033Z,18.15
2018-07-19T22:11:58.600Z,19.95
2018-07-19T22:14:27.530Z,17.85
2018-07-19T22:16:57.163Z,19.50
2018-07-19T22:19:26.769Z,23.57
2018-07-19T22:21:56.274Z,19.07
2018-07-19T22:24:25.139Z,20.10
2018-07-19T22:26:55.067Z,18.73
2018-07-19T22:29:23.719Z,22.20
2018-07-19T22:31:53.014Z,20.20
2018-07-19T22:34:22.758Z,18.45
2018-07-19T22:36:52.389Z,20.60
2018-07-19T22:39:22.328Z,16.55
2018-07-19T22:41:51.353Z,15.23
2018-07-19T22:44:20.894Z,23.05
2018-07-19T22:46:50.654Z,18.30
2018-07-19T22:49:20.056Z,18.87
2018-07-19T22:51:48.823Z,15.20
2018-07-19T22:54:18.771Z,21.12
2018-07-19T22:56:48.669Z,15.35
2018-07-19T22:59:18.469Z,20.52
2018-07-19T23:01:47.985Z,20.30
2018-07-19T23:04:16.848Z,23.10
2018-07-19T23:06:45.621Z,23.00
2018-07-19T23:09:15.274Z,18.62
2018-07-19T23:11:44.245Z,18.10
2018-07-19T23:14:13.324Z,17.50
2018-07-19T23:16:42.889Z,18.42
2018-07-19T23:19:12.683Z,21.17
2018-07-19T23:21:42.445Z,20.52
2018-07-19T23:24:12.554Z,21.68
2018-07-19T23:26:43.111Z,21.10
2018-07-19T23:29:13.160Z,24.92
2018-07-19T23:31:42.482Z,18.15
2018-07-19T23:34:12.146Z,22.25
2018-07-19T23:36:45.159Z,18.57
2018-07-19T23:39:18.759Z,18.35
2018-07-19T23:41:57.893Z,23.80
2018-07-19T23:44:33.845Z,15.95
2018-07-19T23:47:08.109Z,15.45
2018-07-19T23:49:36.859Z,18.48
2018-07-19T23:52:05.706Z,18.92
2018-07-19T23:54:35.621Z,15.35
2018-07-19T23:57:05.174Z,16.57
2018-07-19T23:59:35.115Z,17.80
